Time;durP1;ratioP1;P1;durP2;ratioP2;P2;SDS_P1;SDS_P2;PMS_P1;PMS_P2;Temp;Humidity;BMP_temperature;BMP_pressure;BME280_temperature;BME280_humidity;BME280_pressure;Samples;Min_cycle;Max_cycle;Signal;HPM_P1;HPM_P2
2022/05/17 00:00:12;;;;;;;5.67;2.20;;;19.90;56.10;;;;;;5035070;28;20482;-37
2022/05/17 00:02:39;;;;;;;3.97;2.37;;;19.90;56.50;;;;;;5035111;28;20432;-37
2022/05/17 00:05:07;;;;;;;7.00;3.90;;;19.90;57.70;;;;;;5034944;28;20479;-37
2022/05/17 00:07:34;;;;;;;3.93;2.57;;;19.80;57.50;;;;;;5034480;28;20459;-37
2022/05/17 00:10:01;;;;;;;4.30;2.87;;;19.80;57.30;;;;;;5034574;28;20555;-39
2022/05/17 00:12:27;;;;;;;4.60;2.30;;;19.70;57.00;;;;;;5034628;28;20436;-39
2022/05/17 00:14:56;;;;;;;2.63;2.33;;;19.60;56.90;;;;;;5034708;28;20889;-38
2022/05/17 00:17:25;;;;;;;4.10;2.73;;;19.60;56.90;;;;;;5034643;28;20561;-38
2022/05/17 00:19:52;;;;;;;3.20;2.37;;;19.60;56.70;;;;;;5034738;28;20451;-39
2022/05/17 00:22:19;;;;;;;4.97;2.80;;;19.60;56.50;;;;;;5034803;28;20511;-39
2022/05/17 00:24:49;;;;;;;4.13;2.50;;;19.60;56.50;;;;;;5034594;28;20432;-38
2022/05/17 00:27:16;;;;;;;3.87;2.50;;;19.60;56.40;;;;;;5034357;28;20533;-38
2022/05/17 00:29:43;;;;;;;3.63;2.60;;;19.50;57.40;;;;;;5034593;28;20484;-39
2022/05/17 00:32:10;;;;;;;2.83;2.33;;;19.50;58.80;;;;;;5034672;28;20455;-38
2022/05/17 00:34:38;;;;;;;4.53;2.03;;;19.50;61.10;;;;;;5034566;28;20476;-42
2022/05/17 00:37:05;;;;;;;6.00;2.10;;;19.40;61.70;;;;;;5034544;28;20480;-37
2022/05/17 00:39:32;;;;;;;5.30;3.00;;;19.30;62.00;;;;;;5034611;28;20475;-37
2022/05/17 00:42:02;;;;;;;10.40;2.20;;;19.20;62.30;;;;;;5034776;28;20844;-39
2022/05/17 00:44:44;;;;;;;3.80;2.50;;;19.10;64.20;;;;;;5035102;28;20900;-39
2022/05/17 00:47:14;;;;;;;2.87;2.47;;;19.10;66.00;;;;;;5034771;28;20529;-42
2022/05/17 00:49:46;;;;;;;4.40;2.17;;;19.00;65.80;;;;;;5034527;28;20498;-37
2022/05/17 00:52:17;;;;;;;4.57;2.83;;;19.00;65.70;;;;;;5034521;28;21103;-39
2022/05/17 00:54:44;;;;;;;8.27;2.67;;;19.00;66.10;;;;;;5034450;28;20592;-38
2022/05/17 00:57:19;;;;;;;4.20;2.60;;;18.90;67.30;;;;;;5034317;28;20480;-37
2022/05/17 00:59:48;;;;;;;6.53;2.90;;;18.90;68.70;;;;;;5034417;28;20501;-38
2022/05/17 01:02:15;;;;;;;7.57;2.90;;;18.80;69.70;;;;;;5034071;28;20467;-38
2022/05/17 01:04:43;;;;;;;3.30;2.43;;;18.70;70.90;;;;;;5034273;28;20448;-37
2022/05/17 01:07:13;;;;;;;5.07;2.40;;;18.60;70.80;;;;;;5035407;28;20420;-38
2022/05/17 01:09:40;;;;;;;4.57;2.57;;;18.60;71.20;;;;;;5038419;28;20451;-38
2022/05/17 01:12:08;;;;;;;6.90;2.77;;;18.60;72.10;;;;;;5038333;28;20484;-39
2022/05/17 01:17:20;;;;;;;3.77;2.53;;;18.40;74.40;;;;;;5037828;28;20489;-38
2022/05/17 01:19:48;;;;;;;6.67;2.87;;;18.40;75.20;;;;;;5038528;28;20432;-46
2022/05/17 01:22:17;;;;;;;6.03;2.80;;;18.40;76.20;;;;;;5038425;28;20443;-38
2022/05/17 01:24:46;;;;;;;4.07;2.63;;;18.30;76.10;;;;;;5038798;28;20766;-38
2022/05/17 01:27:18;;;;;;;4.90;2.93;;;18.30;77.10;;;;;;5038647;28;20460;-45
2022/05/17 01:29:47;;;;;;;4.17;2.53;;;18.30;78.70;;;;;;5038296;28;20467;-39
2022/05/17 01:32:15;;;;;;;4.33;2.83;;;18.30;79.70;;;;;;5038129;28;20451;-38
2022/05/17 01:34:42;;;;;;;5.43;2.63;;;18.20;80.70;;;;;;5037913;28;20480;-37
2022/05/17 01:37:10;;;;;;;4.33;2.33;;;18.20;82.10;;;;;;5037886;28;20479;-38
2022/05/17 01:39:38;;;;;;;3.73;2.23;;;18.20;84.00;;;;;;5037771;28;20444;-38
2022/05/17 01:42:06;;;;;;;3.97;2.37;;;18.20;85.50;;;;;;5037605;28;20467;-39
2022/05/17 01:44:34;;;;;;;3.60;2.50;;;18.20;86.60;;;;;;5037770;28;20455;-38
2022/05/17 01:47:00;;;;;;;4.70;2.60;;;18.20;88.30;;;;;;5037744;28;20444;-38
2022/05/17 01:49:27;;;;;;;2.97;2.43;;;18.10;89.80;;;;;;5037761;28;20444;-36
2022/05/17 01:51:54;;;;;;;6.57;2.80;;;18.10;90.80;;;;;;5037796;28;20492;-42
2022/05/17 01:54:20;;;;;;;3.20;2.47;;;18.10;91.00;;;;;;5037177;28;20468;-38
2022/05/17 01:56:49;;;;;;;5.60;2.50;;;18.10;93.00;;;;;;5037495;28;20484;-38
2022/05/17 01:59:17;;;;;;;4.60;2.97;;;18.10;94.90;;;;;;5037419;28;20460;-37
2022/05/17 02:01:44;;;;;;;6.70;2.83;;;18.00;96.00;;;;;;5037101;28;20460;-38
2022/05/17 02:04:11;;;;;;;3.80;2.40;;;17.90;98.30;;;;;;5037290;28;20456;-39
2022/05/17 02:06:37;;;;;;;2.80;2.30;;;17.90;99.90;;;;;;5037165;28;20476;-38
2022/05/17 02:09:04;;;;;;;4.00;2.07;;;17.80;99.90;;;;;;5036900;28;20452;-37
2022/05/17 02:11:31;;;;;;;3.90;2.73;;;17.80;99.90;;;;;;5037193;28;20444;-37
2022/05/17 02:13:59;;;;;;;4.03;1.80;;;17.70;99.90;;;;;;5037198;28;20460;-40
2022/05/17 02:16:26;;;;;;;5.07;2.90;;;17.70;99.90;;;;;;5037006;28;20483;-37
2022/05/17 02:18:52;;;;;;;4.83;2.33;;;17.70;99.90;;;;;;5036887;28;20846;-38
2022/05/17 02:21:22;;;;;;;3.20;2.90;;;17.60;99.90;;;;;;5036815;28;20482;-38
2022/05/17 02:23:49;;;;;;;4.63;2.97;;;17.60;99.90;;;;;;5036803;28;20518;-37
2022/05/17 02:26:16;;;;;;;2.70;2.37;;;17.50;99.90;;;;;;5036859;28;20452;-36
2022/05/17 02:28:43;;;;;;;5.20;3.27;;;17.50;99.90;;;;;;5036913;28;20440;-38
2022/05/17 02:31:17;;;;;;;4.70;2.73;;;17.50;99.90;;;;;;5036300;28;20476;-38
2022/05/17 02:33:44;;;;;;;6.40;3.10;;;17.30;99.90;;;;;;5037042;28;20440;-38
2022/05/17 02:36:10;;;;;;;5.00;3.80;;;17.20;99.90;;;;;;5036865;28;20471;-37
2022/05/17 02:38:37;;;;;;;3.37;2.33;;;17.20;99.90;;;;;;5036748;28;20449;-40
2022/05/17 02:41:04;;;;;;;7.20;2.87;;;17.10;99.90;;;;;;5036325;28;20468;-37
2022/05/17 02:43:31;;;;;;;6.70;3.27;;;17.10;99.90;;;;;;5036620;28;20482;-38
2022/05/17 02:45:58;;;;;;;3.20;2.90;;;17.00;99.90;;;;;;5036563;28;20459;-38
2022/05/17 02:48:26;;;;;;;6.47;3.10;;;17.00;99.90;;;;;;5036478;28;20443;-38
2022/05/17 02:50:52;;;;;;;5.43;3.37;;;16.90;99.90;;;;;;5036602;28;20523;-37
2022/05/17 02:53:19;;;;;;;4.70;3.10;;;16.90;99.90;;;;;;5036625;28;20594;-37
2022/05/17 02:55:50;;;;;;;3.90;3.00;;;16.90;99.90;;;;;;5036474;28;20953;-40
2022/05/17 02:58:17;;;;;;;6.10;3.47;;;16.80;99.90;;;;;;5036338;28;20548;-38
2022/05/17 03:00:43;;;;;;;3.70;3.23;;;16.80;99.90;;;;;;5036600;28;20464;-37
2022/05/17 03:03:13;;;;;;;5.73;3.27;;;16.70;99.90;;;;;;5036378;28;20436;-38
2022/05/17 03:05:41;;;;;;;5.60;3.50;;;16.60;99.90;;;;;;5035742;28;20970;-38
2022/05/17 03:08:08;;;;;;;5.03;2.90;;;16.50;99.90;;;;;;5035393;28;20529;-38
2022/05/17 03:10:35;;;;;;;3.50;2.60;;;16.50;99.90;;;;;;5035783;28;20928;-38
2022/05/17 03:13:05;;;;;;;8.73;3.83;;;16.50;99.90;;;;;;5036054;28;20483;-39
2022/05/17 03:15:32;;;;;;;11.30;4.33;;;16.40;99.90;;;;;;5036071;28;20452;-41
2022/05/17 03:17:58;;;;;;;8.90;4.50;;;16.40;99.90;;;;;;5035525;28;20480;-37
2022/05/17 03:20:31;;;;;;;5.10;2.90;;;16.40;99.90;;;;;;5035955;28;20468;-38
2022/05/17 03:23:00;;;;;;;8.73;3.60;;;16.30;99.90;;;;;;5035901;28;20475;-39
2022/05/17 03:25:27;;;;;;;5.60;3.37;;;16.30;99.90;;;;;;5035652;28;20542;-38
2022/05/17 03:27:54;;;;;;;13.83;7.03;;;16.20;99.90;;;;;;5035860;28;20448;-40
2022/05/17 03:30:21;;;;;;;12.40;4.23;;;16.20;99.90;;;;;;5035114;28;20766;-37
2022/05/17 03:32:48;;;;;;;5.87;3.63;;;16.20;99.90;;;;;;5035567;28;20587;-39
2022/05/17 03:35:15;;;;;;;9.23;3.70;;;16.10;99.90;;;;;;5035561;28;20501;-37
2022/05/17 03:37:41;;;;;;;15.83;4.70;;;16.10;99.90;;;;;;5034564;28;20491;-38
2022/05/17 03:40:11;;;;;;;5.70;3.63;;;16.00;99.90;;;;;;5035451;28;20535;-37
2022/05/17 03:42:38;;;;;;;6.10;3.30;;;15.90;99.90;;;;;;5035493;28;20459;-39
2022/05/17 03:45:08;;;;;;;10.73;4.00;;;15.80;99.90;;;;;;5035381;28;20448;-36
2022/05/17 03:47:37;;;;;;;7.17;3.60;;;15.80;99.90;;;;;;5035164;28;20444;-38
2022/05/17 03:50:04;;;;;;;8.83;4.40;;;15.70;99.90;;;;;;5035430;28;20468;-43
2022/05/17 03:52:34;;;;;;;14.20;4.43;;;15.60;99.90;;;;;;5035549;28;20436;-37
